Time;durP1;ratioP1;P1;durP2;ratioP2;P2;SDS_P1;SDS_P2;PMS_P1;PMS_P2;Temp;Humidity;BMP_temperature;BMP_pressure;BME280_temperature;BME280_humidity;BME280_pressure;Samples;Min_cycle;Max_cycle;Signal;HPM_P1;HPM_P2
2023/01/07 00:07:47;;;;;;;2.37;2.17;;;;;12.10;99422.00;;;;16510057;28;20756;-49
2023/01/07 00:15:49;;;;;;;2.00;1.80;;;;;12.20;99414.00;;;;16517858;28;20218;-49
2023/01/07 00:23:56;;;;;;;2.80;2.60;;;;;12.00;99409.00;;;;16516400;28;20204;-46
2023/01/07 00:31:58;;;;;;;2.40;2.30;;;;;12.10;99396.00;;;;16536581;28;20234;-47
2023/01/07 00:40:02;;;;;;;3.43;2.80;;;;;12.00;99377.00;;;;16528254;28;20247;-49
2023/01/07 00:48:06;;;;;;;2.50;2.30;;;;;12.00;99380.00;;;;16541011;28;20912;-48
2023/01/07 00:56:11;;;;;;;2.67;2.23;;;;;13.10;99365.00;;;;16520037;28;20309;-48
2023/01/07 01:04:13;;;;;;;3.70;1.97;;;;;12.80;99367.00;;;;16511947;28;20213;-48
2023/01/07 01:12:17;;;;;;;2.30;2.10;;;;;12.50;99368.00;;;;16522282;28;20223;-46
2023/01/07 01:20:20;;;;;;;2.80;2.10;;;;;12.50;99351.00;;;;16531739;28;20273;-46
2023/01/07 01:28:24;;;;;;;2.57;2.17;;;;;13.50;99346.00;;;;16528146;28;20255;-46
2023/01/07 01:36:27;;;;;;;2.10;2.00;;;;;12.80;99350.00;;;;16537014;28;20302;-47
2023/01/07 01:44:40;;;;;;;3.63;2.30;;;;;13.50;99340.00;;;;16534543;28;20215;-47
2023/01/07 01:52:49;;;;;;;2.43;2.00;;;;;12.40;99348.00;;;;16535638;28;20211;-47
2023/01/07 02:00:54;;;;;;;2.70;2.17;;;;;13.20;99339.00;;;;16534728;28;20219;-47
2023/01/07 02:08:57;;;;;;;2.30;2.07;;;;;13.60;99333.00;;;;16523079;28;20610;-46
2023/01/07 02:17:08;;;;;;;3.10;2.53;;;;;13.80;99319.00;;;;16538980;28;20247;-47
2023/01/07 02:25:29;;;;;;;2.80;2.60;;;;;13.10;99320.00;;;;16537437;28;20340;-47
2023/01/07 02:33:41;;;;;;;3.13;2.83;;;;;12.90;99300.00;;;;16541219;28;20202;-46
2023/01/07 02:41:48;;;;;;;3.00;2.70;;;;;12.80;99293.00;;;;16525155;28;20231;-47
2023/01/07 02:49:52;;;;;;;2.60;2.40;;;;;13.30;99279.00;;;;16518447;28;20644;-47
2023/01/07 02:58:21;;;;;;;4.23;3.20;;;;;12.40;99278.00;;;;16517244;28;20591;-47
2023/01/07 03:06:36;;;;;;;3.53;2.33;;;;;12.40;99269.00;;;;16526340;28;20425;-47
2023/01/07 03:14:41;;;;;;;4.00;3.70;;;;;12.90;99254.00;;;;16548215;28;20878;-46
2023/01/07 03:22:46;;;;;;;4.57;4.10;;;;;13.10;99252.00;;;;16537309;28;20199;-48
2023/01/07 03:30:50;;;;;;;3.67;2.40;;;;;12.50;99231.00;;;;16514286;28;20959;-47
2023/01/07 03:38:55;;;;;;;3.40;3.20;;;;;13.00;99234.00;;;;16528191;28;20216;-47
2023/01/07 03:46:58;;;;;;;5.40;4.87;;;;;12.80;99229.00;;;;16543749;28;20227;-48
2023/01/07 03:55:03;;;;;;;4.90;4.50;;;;;12.90;99220.00;;;;16548919;28;20229;-47
2023/01/07 04:03:07;;;;;;;5.33;4.83;;;;;13.00;99217.00;;;;16542603;28;20195;-48
2023/01/07 04:11:15;;;;;;;5.50;5.00;;;;;12.90;99198.00;;;;16540842;28;20234;-47
2023/01/07 04:19:18;;;;;;;5.67;5.17;;;;;13.10;99193.00;;;;16513346;28;20271;-48
2023/01/07 04:27:22;;;;;;;6.27;5.50;;;;;13.10;99188.00;;;;16540418;28;20226;-48
2023/01/07 04:35:24;;;;;;;6.20;5.47;;;;;13.20;99179.00;;;;16534944;28;20224;-48
2023/01/07 04:43:29;;;;;;;6.07;5.43;;;;;13.10;99179.00;;;;16535648;28;20211;-48
2023/01/07 04:51:31;;;;;;;5.53;5.13;;;;;13.20;99172.00;;;;16544004;28;20735;-48
2023/01/07 04:59:36;;;;;;;6.23;5.73;;;;;13.20;99162.00;;;;16547815;28;21039;-48
2023/01/07 05:07:39;;;;;;;6.77;6.07;;;;;13.20;99154.00;;;;16543034;28;20224;-48
2023/01/07 05:15:44;;;;;;;5.37;4.97;;;;;13.20;99147.00;;;;16541944;28;20793;-48
2023/01/07 05:23:47;;;;;;;5.07;4.67;;;;;13.00;99136.00;;;;16549666;28;20202;-48
2023/01/07 05:31:51;;;;;;;5.20;4.80;;;;;13.00;99140.00;;;;16553002;28;20227;-48
2023/01/07 05:39:54;;;;;;;3.63;2.97;;;;;12.70;99136.00;;;;16534743;28;20260;-48
2023/01/07 05:47:58;;;;;;;3.97;2.40;;;;;12.10;99126.00;;;;16549417;28;20226;-48
2023/01/07 05:56:02;;;;;;;2.87;2.67;;;;;11.80;99118.00;;;;16534391;28;20207;-48
2023/01/07 06:04:06;;;;;;;3.63;3.33;;;;;11.90;99114.00;;;;16523258;28;20287;-48
2023/01/07 06:12:08;;;;;;;5.00;4.50;;;;;12.40;99104.00;;;;16498165;28;20313;-48
2023/01/07 06:20:13;;;;;;;2.57;2.37;;;;;12.50;99099.00;;;;16534829;28;20294;-47
2023/01/07 06:28:16;;;;;;;3.13;2.93;;;;;12.70;99100.00;;;;16523614;28;20234;-47
2023/01/07 06:36:20;;;;;;;2.70;2.50;;;;;12.80;99099.00;;;;16533878;28;20231;-49
2023/01/07 06:44:22;;;;;;;2.03;1.93;;;;;12.80;99095.00;;;;16537477;28;20281;-47
2023/01/07 06:52:26;;;;;;;2.37;2.17;;;;;12.80;99086.00;;;;16549761;28;20260;-48
2023/01/07 07:00:29;;;;;;;2.20;2.10;;;;;13.00;99069.00;;;;16550366;28;20222;-48
2023/01/07 07:08:32;;;;;;;2.90;2.70;;;;;13.10;99064.00;;;;16519957;28;20245;-48
2023/01/07 07:16:35;;;;;;;2.13;1.93;;;;;13.00;99063.00;;;;16520854;28;20356;-48
2023/01/07 07:24:39;;;;;;;1.57;1.27;;;;;13.30;99050.00;;;;16525249;28;20221;-48
2023/01/07 07:32:41;;;;;;;2.10;1.80;;;;;13.10;99059.00;;;;16511417;28;20234;-48
2023/01/07 07:40:45;;;;;;;2.90;2.13;;;;;13.40;99053.00;;;;16516922;28;20223;-48
2023/01/07 07:48:49;;;;;;;2.47;1.93;;;;;13.90;99031.00;;;;16507876;28;20617;-48
2023/01/07 07:56:53;;;;;;;1.50;1.40;;;;;13.60;99023.00;;;;16486023;28;20222;-48
2023/01/07 08:04:55;;;;;;;1.17;1.17;;;;;13.70;99020.00;;;;16483458;28;20223;-48
2023/01/07 08:12:59;;;;;;;1.57;1.10;;;;;13.40;99019.00;;;;16497857;28;20600;-47
2023/01/07 08:21:02;;;;;;;2.93;1.60;;;;;12.90;99018.00;;;;16504887;28;20696;-47
2023/01/07 08:29:06;;;;;;;1.83;1.70;;;;;12.90;99011.00;;;;16533747;28;20736;-48
2023/01/07 08:37:08;;;;;;;1.80;1.70;;;;;13.10;99007.00;;;;16521969;28;20240;-48
2023/01/07 08:45:12;;;;;;;2.10;1.93;;;;;13.20;99008.00;;;;16498517;28;20727;-48
2023/01/07 08:53:15;;;;;;;1.73;1.63;;;;;13.50;98994.00;;;;16493281;28;20317;-48
2023/01/07 09:01:18;;;;;;;2.77;2.07;;;;;13.50;98990.00;;;;16511479;28;20224;-48
2023/01/07 09:09:21;;;;;;;3.17;2.60;;;;;13.20;98985.00;;;;16495955;28;20239;-48
2023/01/07 09:17:25;;;;;;;3.10;2.27;;;;;13.30;98990.00;;;;16524101;28;20366;-48
2023/01/07 09:25:27;;;;;;;2.57;2.37;;;;;13.20;98990.00;;;;16514243;28;20221;-49
2023/01/07 09:33:31;;;;;;;2.40;2.20;;;;;13.70;98995.00;;;;16527498;28;20203;-48
2023/01/07 09:41:41;;;;;;;4.63;2.67;;;;;14.10;98995.00;;;;16522981;28;20231;-48
2023/01/07 09:49:46;;;;;;;3.03;2.83;;;;;13.90;98993.00;;;;16515704;28;20211;-48
2023/01/07 09:57:49;;;;;;;4.10;2.70;;;;;14.10;98997.00;;;;16500377;28;20215;-48
2023/01/07 10:06:00;;;;;;;3.37;3.00;;;;;13.40;98987.00;;;;16516024;28;20618;-48
2023/01/07 10:14:20;;;;;;;4.20;3.73;;;;;13.40;98971.00;;;;16512589;28;20204;-48
2023/01/07 10:22:29;;;;;;;5.00;4.60;;;;;14.10;98947.00;;;;16482127;28;20188;-48
2023/01/07 10:30:37;;;;;;;5.67;3.90;;;;;14.50;98936.00;;;;16514219;28;20235;-48
2023/01/07 10:38:43;;;;;;;6.33;4.33;;;;;15.40;98915.00;;;;16520262;28;20236;-48
2023/01/07 10:46:52;;;;;;;9.40;8.50;;;;;15.30;98907.00;;;;16517347;28;20242;-48
2023/01/07 10:55:05;;;;;;;4.50;4.10;;;;;15.20;98899.00;;;;16502011;28;20588;-48
2023/01/07 11:03:18;;;;;;;5.00;4.50;;;;;16.10;98862.00;;;;16505442;28;20196;-48
2023/01/07 11:11:24;;;;;;;5.93;5.33;;;;;16.30;98858.00;;;;16512941;28;20326;-48
2023/01/07 11:19:43;;;;;;;4.77;4.27;;;;;16.30;98842.00;;;;16489222;28;20231;-48
2023/01/07 11:27:47;;;;;;;7.50;4.50;;;;;16.40;98828.00;;;;16494924;28;20220;-48
2023/01/07 11:35:52;;;;;;;5.30;4.80;;;;;16.80;98806.00;;;;16508949;28;20239;-48
2023/01/07 11:43:56;;;;;;;5.73;4.43;;;;;17.20;98800.00;;;;16524883;28;20708;-49
2023/01/07 11:51:59;;;;;;;4.77;4.37;;;;;17.20;98777.00;;;;16504685;28;20233;-49
2023/01/07 12:00:14;;;;;;;4.83;4.43;;;;;17.80;98761.00;;;;16475840;28;20354;-48
2023/01/07 12:08:21;;;;;;;6.50;4.93;;;;;17.20;98749.00;;;;16475183;28;20235;-48
2023/01/07 12:16:28;;;;;;;5.33;4.93;;;;;18.00;98741.00;;;;16518809;28;20223;-49
2023/01/07 12:25:12;;;;;;;5.13;4.30;;;;;18.50;98714.00;;;;16497620;28;20224;-48
2023/01/07 12:33:26;;;;;;;5.33;4.20;;;;;18.40;98698.00;;;;16537493;28;20224;-48
2023/01/07 12:41:32;;;;;;;5.30;4.80;;;;;18.30;98677.00;;;;16514215;28;20223;-48
2023/01/07 12:49:38;;;;;;;5.10;4.70;;;;;18.30;98653.00;;;;16531342;28;20235;-49
2023/01/07 12:57:40;;;;;;;4.27;3.87;;;;;18.50;98644.00;;;;16538468;28;20306;-49
2023/01/07 13:05:48;;;;;;;4.70;4.30;;;;;18.80;98631.00;;;;16541130;28;20226;-47
2023/01/07 13:13:52;;;;;;;4.37;3.97;;;;;19.40;98634.00;;;;16540090;28;20309;-48
2023/01/07 13:21:56;;;;;;;4.27;3.97;;;;;18.50;98624.00;;;;16563029;28;20294;-47
2023/01/07 13:30:17;;;;;;;4.37;3.57;;;;;19.10;98617.00;;;;16551864;28;20231;-48
2023/01/07 13:38:47;;;;;;;3.67;3.37;;;;;19.00;98611.00;;;;16544097;28;20235;-48
2023/01/07 13:46:50;;;;;;;4.40;4.00;;;;;19.00;98596.00;;;;16528888;28;20257;-48
2023/01/07 13:54:56;;;;;;;3.53;3.23;;;;;18.60;98599.00;;;;16522265;28;20222;-48
2023/01/07 14:02:58;;;;;;;3.80;3.50;;;;;18.50;98584.00;;;;16523405;28;20204;-48
2023/01/07 14:11:02;;;;;;;4.30;3.90;;;;;17.70;98585.00;;;;16531548;28;20223;-48
2023/01/07 14:19:11;;;;;;;4.70;4.30;;;;;16.70;98588.00;;;;16526905;28;20223;-47
2023/01/07 14:27:33;;;;;;;4.40;4.00;;;;;16.50;98593.00;;;;16525744;28;20220;-47
2023/01/07 14:35:38;;;;;;;4.77;4.37;;;;;16.10;98608.00;;;;16539545;28;20601;-48
2023/01/07 14:44:01;;;;;;;5.00;4.60;;;;;15.70;98601.00;;;;16524334;28;20200;-48
2023/01/07 14:52:09;;;;;;;5.20;4.70;;;;;16.10;98606.00;;;;16532490;28;20235;-48
2023/01/07 15:00:35;;;;;;;5.23;4.73;;;;;15.70;98607.00;;;;16524064;28;20231;-47
2023/01/07 15:17:06;;;;;;;7.80;5.50;;;;;13.20;98623.00;;;;16538182;28;20284;-47
2023/01/07 15:25:18;;;;;;;4.50;3.70;;;;;12.10;98622.00;;;;16539476;28;20230;-47
2023/01/07 15:33:37;;;;;;;49.33;34.50;;;;;11.90;98628.00;;;;16536295;28;20696;-46
2023/01/07 15:41:40;;;;;;;5.37;4.87;;;;;10.80;98628.00;;;;16526381;28;20226;-47
2023/01/07 15:49:44;;;;;;;6.30;5.70;;;;;10.80;98624.00;;;;16510463;28;20240;-47
2023/01/07 15:57:47;;;;;;;9.87;8.97;;;;;11.00;98617.00;;;;16494250;28;20216;-47
2023/01/07 16:05:52;;;;;;;9.17;8.20;;;;;10.80;98610.00;;;;16505225;28;20220;-48
2023/01/07 16:13:58;;;;;;;9.40;7.43;;;;;10.50;98612.00;;;;16519431;28;20226;-49
2023/01/07 16:22:02;;;;;;;8.80;8.00;;;;;10.60;98622.00;;;;16523597;28;20222;-48
2023/01/07 16:30:05;;;;;;;12.43;8.03;;;;;10.00;98626.00;;;;16521746;28;20784;-48
2023/01/07 16:38:10;;;;;;;9.93;8.47;;;;;9.90;98649.00;;;;16530751;28;20231;-48
2023/01/07 16:46:28;;;;;;;10.00;9.10;;;;;9.60;98653.00;;;;16536350;28;20218;-49
2023/01/07 16:54:35;;;;;;;16.17;12.00;;;;;9.80;98643.00;;;;16550020;28;20236;-48
2023/01/07 17:02:40;;;;;;;29.93;22.10;;;;;9.80;98642.00;;;;16552474;28;20268;-48
2023/01/07 17:10:44;;;;;;;10.47;9.37;;;;;10.80;98624.00;;;;16384518;23;20629;-50
2023/01/07 17:18:47;;;;;;;11.30;10.07;;;;;11.20;98612.00;;;;16343654;29;20615;-49
2023/01/07 17:26:51;;;;;;;15.37;12.90;;;;;10.30;98612.00;;;;16352809;28;20218;-49
2023/01/07 17:34:54;;;;;;;11.17;10.07;;;;;11.00;98594.00;;;;16340755;29;21503;-48
2023/01/07 17:51:19;;;;;;;9.90;8.90;;;;;11.50;98586.00;;;;16331331;29;20231;-49
2023/01/07 17:59:23;;;;;;;9.77;8.87;;;;;11.40;98579.00;;;;16325909;29;20225;-48
2023/01/07 18:07:26;;;;;;;11.83;9.80;;;;;11.50;98573.00;;;;16332357;29;20231;-49
2023/01/07 18:15:30;;;;;;;13.97;9.80;;;;;11.30;98589.00;;;;16349705;28;20280;-49
2023/01/07 18:23:32;;;;;;;13.87;11.70;;;;;10.70;98592.00;;;;16324347;29;20198;-49
2023/01/07 18:31:41;;;;;;;16.60;14.90;;;;;10.50;98588.00;;;;16311975;29;20244;-49
2023/01/07 18:39:43;;;;;;;11.87;10.67;;;;;10.80;98571.00;;;;16323316;29;20826;-49
2023/01/07 18:47:48;;;;;;;12.53;11.23;;;;;10.80;98574.00;;;;16328000;29;20372;-48
2023/01/07 18:55:57;;;;;;;13.30;11.70;;;;;10.80;98579.00;;;;16309844;29;20238;-49
2023/01/07 19:04:03;;;;;;;281.87;210.00;;;;;10.00;98585.00;;;;16331510;29;20226;-48
2023/01/07 19:12:06;;;;;;;50.50;39.57;;;;;9.60;98581.00;;;;16322314;29;20312;-49
2023/01/07 19:20:14;;;;;;;46.90;38.17;;;;;9.90;98573.00;;;;16307213;29;20222;-48
2023/01/07 19:28:16;;;;;;;108.97;75.77;;;;;9.00;98583.00;;;;16292454;29;20268;-48
2023/01/07 19:36:20;;;;;;;18.80;15.80;;;;;10.20;98561.00;;;;16308675;29;20225;-49
2023/01/07 19:44:23;;;;;;;13.20;11.73;;;;;10.50;98556.00;;;;16310797;29;20221;-49
2023/01/07 19:52:26;;;;;;;12.73;11.33;;;;;9.80;98570.00;;;;16289454;29;20229;-49
2023/01/07 20:00:29;;;;;;;16.07;14.37;;;;;8.50;98584.00;;;;16298854;29;20218;-48
2023/01/07 20:08:34;;;;;;;17.60;15.80;;;;;8.50;98571.00;;;;16315460;29;20359;-49
2023/01/07 20:16:38;;;;;;;13.17;11.77;;;;;8.20;98564.00;;;;16324100;29;20723;-50
2023/01/07 20:24:42;;;;;;;16.67;13.83;;;;;9.40;98552.00;;;;16316104;29;20245;-49
2023/01/07 20:32:45;;;;;;;15.17;13.47;;;;;7.80;98573.00;;;;16315384;29;20275;-49
2023/01/07 20:40:48;;;;;;;19.70;17.63;;;;;8.70;98545.00;;;;16311167;29;20712;-49
2023/01/07 20:48:51;;;;;;;14.53;12.93;;;;;7.70;98542.00;;;;16313721;29;20611;-49
2023/01/07 20:56:55;;;;;;;25.17;18.97;;;;;8.60;98527.00;;;;16306007;29;20229;-48
2023/01/07 21:04:57;;;;;;;15.43;13.80;;;;;9.50;98527.00;;;;16333567;28;20578;-50
2023/01/07 21:13:01;;;;;;;14.53;12.87;;;;;8.90;98521.00;;;;16329252;29;20683;-50
2023/01/07 21:21:09;;;;;;;15.90;14.37;;;;;9.50;98512.00;;;;16322056;29;20576;-50
2023/01/07 21:29:14;;;;;;;15.47;13.40;;;;;9.50;98515.00;;;;16319255;29;20587;-52
2023/01/07 21:37:17;;;;;;;17.40;14.30;;;;;9.60;98516.00;;;;16316562;29;20237;-47
2023/01/07 21:45:21;;;;;;;12.47;11.27;;;;;8.20;98525.00;;;;16335897;29;20225;-49
2023/01/07 21:53:23;;;;;;;14.03;12.63;;;;;8.20;98519.00;;;;16331535;29;20221;-51
2023/01/07 22:01:27;;;;;;;16.27;12.97;;;;;8.60;98508.00;;;;16326581;29;20257;-50
2023/01/07 22:09:30;;;;;;;14.27;11.90;;;;;7.70;98515.00;;;;16330046;29;20330;-50
2023/01/07 22:17:34;;;;;;;15.33;12.10;;;;;7.80;98501.00;;;;16327600;29;20224;-49
2023/01/07 22:25:36;;;;;;;15.30;13.70;;;;;8.90;98489.00;;;;16327690;29;20225;-50
2023/01/07 22:33:40;;;;;;;14.07;12.57;;;;;9.00;98488.00;;;;16326502;29;20283;-50
2023/01/07 22:41:43;;;;;;;15.53;13.93;;;;;9.10;98477.00;;;;16326652;29;20221;-49
2023/01/07 22:49:48;;;;;;;15.07;13.20;;;;;9.20;98477.00;;;;16321511;29;20727;-49
2023/01/07 22:57:50;;;;;;;17.30;14.80;;;;;9.10;98460.00;;;;16324264;29;20726;-48
2023/01/07 23:05:54;;;;;;;12.47;11.10;;;;;8.70;98466.00;;;;16322531;23;20264;-72
2023/01/07 23:13:56;;;;;;;12.87;11.63;;;;;8.90;98464.00;;;;16395150;28;20231;-72
2023/01/07 23:22:00;;;;;;;11.90;10.77;;;;;8.90;98465.00;;;;16397594;28;20217;-73
2023/01/07 23:30:03;;;;;;;15.97;12.83;;;;;8.30;98440.00;;;;16395634;28;20865;-72
2023/01/07 23:38:07;;;;;;;13.33;11.93;;;;;8.40;98435.00;;;;16398926;28;20212;-73
2023/01/07 23:46:09;;;;;;;14.43;12.93;;;;;8.30;98431.00;;;;16392275;28;20311;-73
2023/01/07 23:54:13;;;;;;;15.50;13.87;;;;;7.90;98421.00;;;;16389113;28;20235;-74
